sensor_id;sensor_type;location;lat;lon;timestamp;P1;durP1;ratioP1;P2;durP2;ratioP2
75716;SDS011;64333;50.138;14.332;2023-04-22T00:01:33;15.53;;;9.67;;
75716;SDS011;64333;50.138;14.332;2023-04-22T00:03:58;15.50;;;11.33;;
75716;SDS011;64333;50.138;14.332;2023-04-22T00:06:23;16.17;;;11.10;;
75716;SDS011;64333;50.138;14.332;2023-04-22T00:08:49;17.80;;;11.15;;
75716;SDS011;64333;50.138;14.332;2023-04-22T00:11:14;15.10;;;10.80;;
75716;SDS011;64333;50.138;14.332;2023-04-22T00:13:40;14.85;;;10.90;;
75716;SDS011;64333;50.138;14.332;2023-04-22T00:16:05;17.90;;;11.30;;
75716;SDS011;64333;50.138;14.332;2023-04-22T00:18:32;17.02;;;10.90;;
75716;SDS011;64333;50.138;14.332;2023-04-22T00:20:58;16.33;;;10.90;;
75716;SDS011;64333;50.138;14.332;2023-04-22T00:23:23;17.90;;;11.50;;
75716;SDS011;64333;50.138;14.332;2023-04-22T00:25:48;15.57;;;11.60;;
75716;SDS011;64333;50.138;14.332;2023-04-22T00:28:14;17.40;;;11.43;;
75716;SDS011;64333;50.138;14.332;2023-04-22T00:30:39;17.83;;;11.50;;
75716;SDS011;64333;50.138;14.332;2023-04-22T00:33:04;16.13;;;12.00;;
75716;SDS011;64333;50.138;14.332;2023-04-22T00:35:29;21.07;;;12.70;;
75716;SDS011;64333;50.138;14.332;2023-04-22T00:37:55;19.00;;;12.37;;
75716;SDS011;64333;50.138;14.332;2023-04-22T00:40:20;17.92;;;12.93;;
75716;SDS011;64333;50.138;14.332;2023-04-22T00:42:46;18.77;;;12.90;;
75716;SDS011;64333;50.138;14.332;2023-04-22T00:45:14;21.80;;;13.38;;
75716;SDS011;64333;50.138;14.332;2023-04-22T00:47:41;19.13;;;14.02;;
75716;SDS011;64333;50.138;14.332;2023-04-22T00:50:06;19.95;;;13.98;;
75716;SDS011;64333;50.138;14.332;2023-04-22T00:52:32;22.00;;;14.45;;
75716;SDS011;64333;50.138;14.332;2023-04-22T00:54:57;20.17;;;13.45;;
75716;SDS011;64333;50.138;14.332;2023-04-22T00:57:26;17.85;;;13.15;;
75716;SDS011;64333;50.138;14.332;2023-04-22T00:59:52;22.33;;;13.27;;
75716;SDS011;64333;50.138;14.332;2023-04-22T01:02:17;18.60;;;12.80;;
75716;SDS011;64333;50.138;14.332;2023-04-22T01:04:43;17.88;;;12.18;;
75716;SDS011;64333;50.138;14.332;2023-04-22T01:07:08;17.48;;;11.52;;
75716;SDS011;64333;50.138;14.332;2023-04-22T01:09:33;14.97;;;11.13;;
75716;SDS011;64333;50.138;14.332;2023-04-22T01:11:59;14.90;;;11.18;;
75716;SDS011;64333;50.138;14.332;2023-04-22T01:14:25;15.55;;;10.50;;
75716;SDS011;64333;50.138;14.332;2023-04-22T01:16:50;17.95;;;12.90;;
75716;SDS011;64333;50.138;14.332;2023-04-22T01:19:18;18.38;;;12.38;;
75716;SDS011;64333;50.138;14.332;2023-04-22T01:21:43;18.70;;;13.43;;
75716;SDS011;64333;50.138;14.332;2023-04-22T01:24:11;20.58;;;12.45;;
75716;SDS011;64333;50.138;14.332;2023-04-22T01:26:37;19.52;;;13.90;;
75716;SDS011;64333;50.138;14.332;2023-04-22T01:29:03;21.87;;;14.53;;
75716;SDS011;64333;50.138;14.332;2023-04-22T01:31:29;20.98;;;14.55;;
75716;SDS011;64333;50.138;14.332;2023-04-22T01:33:54;17.92;;;13.13;;
75716;SDS011;64333;50.138;14.332;2023-04-22T01:36:20;16.67;;;11.73;;
75716;SDS011;64333;50.138;14.332;2023-04-22T01:38:45;16.67;;;11.60;;
75716;SDS011;64333;50.138;14.332;2023-04-22T01:41:11;19.35;;;12.18;;
75716;SDS011;64333;50.138;14.332;2023-04-22T01:43:36;21.77;;;13.43;;
75716;SDS011;64333;50.138;14.332;2023-04-22T01:46:02;19.55;;;13.10;;
75716;SDS011;64333;50.138;14.332;2023-04-22T01:48:28;20.63;;;15.35;;
75716;SDS011;64333;50.138;14.332;2023-04-22T01:50:53;23.67;;;15.03;;
75716;SDS011;64333;50.138;14.332;2023-04-22T01:53:19;23.45;;;16.05;;
75716;SDS011;64333;50.138;14.332;2023-04-22T01:55:44;21.57;;;14.83;;
75716;SDS011;64333;50.138;14.332;2023-04-22T01:58:09;26.13;;;15.80;;
75716;SDS011;64333;50.138;14.332;2023-04-22T02:00:34;24.47;;;16.30;;
75716;SDS011;64333;50.138;14.332;2023-04-22T02:03:00;22.97;;;17.50;;
75716;SDS011;64333;50.138;14.332;2023-04-22T02:05:26;23.67;;;15.63;;
75716;SDS011;64333;50.138;14.332;2023-04-22T02:07:52;21.67;;;16.13;;
75716;SDS011;64333;50.138;14.332;2023-04-22T02:10:17;24.27;;;16.60;;
75716;SDS011;64333;50.138;14.332;2023-04-22T02:12:42;23.85;;;16.15;;
75716;SDS011;64333;50.138;14.332;2023-04-22T02:15:08;21.20;;;14.67;;
75716;SDS011;64333;50.138;14.332;2023-04-22T02:17:33;22.08;;;15.10;;
75716;SDS011;64333;50.138;14.332;2023-04-22T02:19:59;25.77;;;15.80;;
75716;SDS011;64333;50.138;14.332;2023-04-22T02:22:25;24.77;;;15.30;;
75716;SDS011;64333;50.138;14.332;2023-04-22T02:24:51;18.73;;;13.00;;
75716;SDS011;64333;50.138;14.332;2023-04-22T02:27:16;20.00;;;13.43;;
75716;SDS011;64333;50.138;14.332;2023-04-22T02:29:41;18.30;;;12.47;;
75716;SDS011;64333;50.138;14.332;2023-04-22T02:32:07;14.63;;;11.77;;
75716;SDS011;64333;50.138;14.332;2023-04-22T02:34:32;22.00;;;13.73;;
75716;SDS011;64333;50.138;14.332;2023-04-22T02:36:57;18.07;;;13.10;;
75716;SDS011;64333;50.138;14.332;2023-04-22T02:39:22;18.03;;;13.47;;
75716;SDS011;64333;50.138;14.332;2023-04-22T02:41:47;20.47;;;13.93;;
75716;SDS011;64333;50.138;14.332;2023-04-22T02:44:13;17.80;;;12.97;;
75716;SDS011;64333;50.138;14.332;2023-04-22T02:46:38;17.77;;;12.93;;
75716;SDS011;64333;50.138;14.332;2023-04-22T02:49:03;17.00;;;12.67;;
75716;SDS011;64333;50.138;14.332;2023-04-22T02:51:29;18.00;;;13.77;;
75716;SDS011;64333;50.138;14.332;2023-04-22T02:53:55;18.63;;;12.70;;
75716;SDS011;64333;50.138;14.332;2023-04-22T02:56:20;18.30;;;12.13;;
75716;SDS011;64333;50.138;14.332;2023-04-22T02:58:45;17.93;;;12.77;;
75716;SDS011;64333;50.138;14.332;2023-04-22T03:01:10;22.10;;;13.07;;
75716;SDS011;64333;50.138;14.332;2023-04-22T03:03:36;17.48;;;13.35;;
75716;SDS011;64333;50.138;14.332;2023-04-22T03:06:01;16.90;;;13.03;;
75716;SDS011;64333;50.138;14.332;2023-04-22T03:08:26;18.73;;;13.47;;
75716;SDS011;64333;50.138;14.332;2023-04-22T03:10:51;19.90;;;13.73;;
75716;SDS011;64333;50.138;14.332;2023-04-22T03:13:17;18.27;;;13.50;;
75716;SDS011;64333;50.138;14.332;2023-04-22T03:15:42;17.73;;;13.35;;
75716;SDS011;64333;50.138;14.332;2023-04-22T03:18:07;20.73;;;12.60;;
75716;SDS011;64333;50.138;14.332;2023-04-22T03:20:33;18.15;;;13.15;;
75716;SDS011;64333;50.138;14.332;2023-04-22T03:22:58;21.05;;;14.57;;
75716;SDS011;64333;50.138;14.332;2023-04-22T03:25:24;19.17;;;13.60;;
75716;SDS011;64333;50.138;14.332;2023-04-22T03:27:49;20.30;;;14.02;;
75716;SDS011;64333;50.138;14.332;2023-04-22T03:30:14;21.27;;;13.67;;
75716;SDS011;64333;50.138;14.332;2023-04-22T03:32:40;22.13;;;14.63;;
75716;SDS011;64333;50.138;14.332;2023-04-22T03:35:05;18.67;;;13.33;;
75716;SDS011;64333;50.138;14.332;2023-04-22T03:37:30;19.60;;;13.73;;
75716;SDS011;64333;50.138;14.332;2023-04-22T03:39:55;20.40;;;14.10;;
75716;SDS011;64333;50.138;14.332;2023-04-22T03:42:21;19.50;;;14.73;;
75716;SDS011;64333;50.138;14.332;2023-04-22T03:44:46;22.80;;;15.43;;
75716;SDS011;64333;50.138;14.332;2023-04-22T03:47:11;19.73;;;14.25;;
75716;SDS011;64333;50.138;14.332;2023-04-22T03:49:36;20.97;;;14.37;;
75716;SDS011;64333;50.138;14.332;2023-04-22T03:52:02;23.03;;;14.23;;
75716;SDS011;64333;50.138;14.332;2023-04-22T03:54:27;20.20;;;14.45;;
75716;SDS011;64333;50.138;14.332;2023-04-22T03:56:53;20.63;;;15.27;;
75716;SDS011;64333;50.138;14.332;2023-04-22T03:59:18;20.63;;;14.90;;
75716;SDS011;64333;50.138;14.332;2023-04-22T04:01:46;19.83;;;14.57;;
75716;SDS011;64333;50.138;14.332;2023-04-22T04:04:11;22.35;;;15.00;;
75716;SDS011;64333;50.138;14.332;2023-04-22T04:06:37;23.27;;;15.63;;
75716;SDS011;64333;50.138;14.332;2023-04-22T04:09:02;21.08;;;15.23;;
75716;SDS011;64333;50.138;14.332;2023-04-22T04:11:28;22.58;;;14.43;;
75716;SDS011;64333;50.138;14.332;2023-04-22T04:13:53;20.20;;;14.83;;
75716;SDS011;64333;50.138;14.332;2023-04-22T04:16:18;23.80;;;15.30;;
75716;SDS011;64333;50.138;14.332;2023-04-22T04:18:43;21.20;;;15.37;;
75716;SDS011;64333;50.138;14.332;2023-04-22T04:21:08;20.17;;;14.07;;
75716;SDS011;64333;50.138;14.332;2023-04-22T04:23:34;20.90;;;14.63;;
75716;SDS011;64333;50.138;14.332;2023-04-22T04:26:00;18.52;;;13.77;;
75716;SDS011;64333;50.138;14.332;2023-04-22T04:28:26;19.20;;;14.13;;
75716;SDS011;64333;50.138;14.332;2023-04-22T04:30:53;21.90;;;14.75;;
75716;SDS011;64333;50.138;14.332;2023-04-22T04:33:19;20.73;;;15.32;;
75716;SDS011;64333;50.138;14.332;2023-04-22T04:35:45;19.58;;;14.55;;
75716;SDS011;64333;50.138;14.332;2023-04-22T04:38:11;23.10;;;16.10;;
75716;SDS011;64333;50.138;14.332;2023-04-22T04:40:38;22.77;;;15.82;;
75716;SDS011;64333;50.138;14.332;2023-04-22T04:43:03;22.55;;;15.80;;
75716;SDS011;64333;50.138;14.332;2023-04-22T04:45:32;25.10;;;14.77;;
75716;SDS011;64333;50.138;14.332;2023-04-22T04:47:57;22.08;;;15.45;;
75716;SDS011;64333;50.138;14.332;2023-04-22T04:50:24;20.67;;;14.90;;
75716;SDS011;64333;50.138;14.332;2023-04-22T04:52:51;20.88;;;15.55;;
75716;SDS011;64333;50.138;14.332;2023-04-22T04:55:17;24.08;;;16.10;;
75716;SDS011;64333;50.138;14.332;2023-04-22T04:57:45;24.23;;;15.43;;
75716;SDS011;64333;50.138;14.332;2023-04-22T05:00:11;25.30;;;15.43;;
75716;SDS011;64333;50.138;14.332;2023-04-22T05:02:38;22.40;;;15.95;;
75716;SDS011;64333;50.138;14.332;2023-04-22T05:05:03;23.10;;;15.57;;
75716;SDS011;64333;50.138;14.332;2023-04-22T05:07:28;23.45;;;15.82;;
75716;SDS011;64333;50.138;14.332;2023-04-22T05:09:54;23.60;;;16.77;;
75716;SDS011;64333;50.138;14.332;2023-04-22T05:12:19;19.63;;;15.10;;
75716;SDS011;64333;50.138;14.332;2023-04-22T05:14:44;25.20;;;16.23;;
75716;SDS011;64333;50.138;14.332;2023-04-22T05:17:11;23.05;;;15.68;;
75716;SDS011;64333;50.138;14.332;2023-04-22T05:19:36;23.65;;;16.23;;
75716;SDS011;64333;50.138;14.332;2023-04-22T05:22:01;20.83;;;15.33;;
75716;SDS011;64333;50.138;14.332;2023-04-22T05:24:27;22.77;;;15.67;;
75716;SDS011;64333;50.138;14.332;2023-04-22T05:26:52;23.13;;;15.63;;
75716;SDS011;64333;50.138;14.332;2023-04-22T05:29:17;21.43;;;15.40;;
75716;SDS011;64333;50.138;14.332;2023-04-22T05:31:42;23.17;;;15.90;;
75716;SDS011;64333;50.138;14.332;2023-04-22T05:34:07;20.40;;;14.77;;
75716;SDS011;64333;50.138;14.332;2023-04-22T05:36:33;20.27;;;15.83;;
75716;SDS011;64333;50.138;14.332;2023-04-22T05:38:58;20.53;;;14.93;;
75716;SDS011;64333;50.138;14.332;2023-04-22T05:41:23;20.42;;;15.48;;
75716;SDS011;64333;50.138;14.332;2023-04-22T05:43:48;23.70;;;16.17;;
75716;SDS011;64333;50.138;14.332;2023-04-22T05:46:14;24.38;;;15.32;;
75716;SDS011;64333;50.138;14.332;2023-04-22T05:48:39;20.70;;;15.27;;
75716;SDS011;64333;50.138;14.332;2023-04-22T05:51:04;22.70;;;15.63;;
75716;SDS011;64333;50.138;14.332;2023-04-22T05:53:29;21.23;;;15.33;;
75716;SDS011;64333;50.138;14.332;2023-04-22T05:55:55;19.87;;;15.17;;
75716;SDS011;64333;50.138;14.332;2023-04-22T05:58:20;23.47;;;15.27;;
75716;SDS011;64333;50.138;14.332;2023-04-22T06:00:45;22.20;;;15.63;;
75716;SDS011;64333;50.138;14.332;2023-04-22T06:03:10;21.85;;;15.07;;
75716;SDS011;64333;50.138;14.332;2023-04-22T06:05:36;21.27;;;15.10;;
75716;SDS011;64333;50.138;14.332;2023-04-22T06:08:01;17.92;;;14.52;;
75716;SDS011;64333;50.138;14.332;2023-04-22T06:10:26;21.30;;;15.18;;
75716;SDS011;64333;50.138;14.332;2023-04-22T06:12:52;18.37;;;14.17;;
75716;SDS011;64333;50.138;14.332;2023-04-22T06:15:17;19.25;;;14.50;;
75716;SDS011;64333;50.138;14.332;2023-04-22T06:17:42;19.00;;;14.15;;
75716;SDS011;64333;50.138;14.332;2023-04-22T06:20:09;19.52;;;15.27;;
75716;SDS011;64333;50.138;14.332;2023-04-22T06:22:34;19.85;;;14.95;;
75716;SDS011;64333;50.138;14.332;2023-04-22T06:25:00;19.80;;;14.85;;
75716;SDS011;64333;50.138;14.332;2023-04-22T06:27:25;20.17;;;15.27;;
75716;SDS011;64333;50.138;14.332;2023-04-22T06:29:50;21.00;;;14.73;;
75716;SDS011;64333;50.138;14.332;2023-04-22T06:32:15;18.90;;;14.75;;
75716;SDS011;64333;50.138;14.332;2023-04-22T06:34:41;18.92;;;13.43;;
75716;SDS011;64333;50.138;14.332;2023-04-22T06:37:06;20.33;;;14.00;;
75716;SDS011;64333;50.138;14.332;2023-04-22T06:39:31;18.77;;;14.50;;
75716;SDS011;64333;50.138;14.332;2023-04-22T06:41:56;19.90;;;14.27;;
75716;SDS011;64333;50.138;14.332;2023-04-22T06:44:22;18.97;;;14.33;;
75716;SDS011;64333;50.138;14.332;2023-04-22T06:46:49;20.67;;;14.65;;
75716;SDS011;64333;50.138;14.332;2023-04-22T06:49:14;20.40;;;14.67;;
75716;SDS011;64333;50.138;14.332;2023-04-22T06:51:39;17.47;;;13.83;;
75716;SDS011;64333;50.138;14.332;2023-04-22T06:54:04;17.93;;;14.10;;
75716;SDS011;64333;50.138;14.332;2023-04-22T06:56:30;22.33;;;14.87;;
75716;SDS011;64333;50.138;14.332;2023-04-22T06:58:55;20.30;;;15.27;;
75716;SDS011;64333;50.138;14.332;2023-04-22T07:01:20;16.43;;;12.53;;
75716;SDS011;64333;50.138;14.332;2023-04-22T07:03:45;17.93;;;12.47;;
75716;SDS011;64333;50.138;14.332;2023-04-22T07:06:11;16.30;;;11.90;;
75716;SDS011;64333;50.138;14.332;2023-04-22T07:08:36;16.97;;;14.07;;
75716;SDS011;64333;50.138;14.332;2023-04-22T07:11:01;18.42;;;14.45;;
75716;SDS011;64333;50.138;14.332;2023-04-22T07:13:26;18.80;;;13.70;;
75716;SDS011;64333;50.138;14.332;2023-04-22T07:15:52;15.43;;;12.75;;
75716;SDS011;64333;50.138;14.332;2023-04-22T07:18:18;20.02;;;14.05;;
75716;SDS011;64333;50.138;14.332;2023-04-22T07:20:43;18.27;;;14.50;;
75716;SDS011;64333;50.138;14.332;2023-04-22T07:23:08;16.73;;;13.13;;
75716;SDS011;64333;50.138;14.332;2023-04-22T07:25:34;15.63;;;12.38;;
75716;SDS011;64333;50.138;14.332;2023-04-22T07:27:59;13.90;;;11.63;;
75716;SDS011;64333;50.138;14.332;2023-04-22T07:30:24;14.57;;;11.57;;
75716;SDS011;64333;50.138;14.332;2023-04-22T07:32:49;12.48;;;10.38;;
75716;SDS011;64333;50.138;14.332;2023-04-22T07:35:16;13.63;;;10.65;;
75716;SDS011;64333;50.138;14.332;2023-04-22T07:37:42;16.67;;;11.43;;
75716;SDS011;64333;50.138;14.332;2023-04-22T07:40:07;13.80;;;11.35;;
75716;SDS011;64333;50.138;14.332;2023-04-22T07:42:35;14.98;;;11.02;;
75716;SDS011;64333;50.138;14.332;2023-04-22T07:45:02;12.80;;;11.02;;
75716;SDS011;64333;50.138;14.332;2023-04-22T07:47:27;15.10;;;12.05;;
75716;SDS011;64333;50.138;14.332;2023-04-22T07:49:53;15.30;;;11.32;;
75716;SDS011;64333;50.138;14.332;2023-04-22T07:52:18;16.17;;;11.02;;
75716;SDS011;64333;50.138;14.332;2023-04-22T07:54:44;14.00;;;10.90;;
75716;SDS011;64333;50.138;14.332;2023-04-22T07:57:10;15.13;;;11.03;;
75716;SDS011;64333;50.138;14.332;2023-04-22T07:59:35;12.90;;;10.57;;
75716;SDS011;64333;50.138;14.332;2023-04-22T08:02:01;13.38;;;10.50;;
75716;SDS011;64333;50.138;14.332;2023-04-22T08:04:26;12.30;;;11.00;;
75716;SDS011;64333;50.138;14.332;2023-04-22T08:06:51;13.47;;;10.33;;
75716;SDS011;64333;50.138;14.332;2023-04-22T08:09:16;13.32;;;11.23;;
75716;SDS011;64333;50.138;14.332;2023-04-22T08:11:42;14.03;;;10.87;;
75716;SDS011;64333;50.138;14.332;2023-04-22T08:14:07;12.20;;;10.90;;
75716;SDS011;64333;50.138;14.332;2023-04-22T08:16:32;12.97;;;10.27;;
75716;SDS011;64333;50.138;14.332;2023-04-22T08:18:57;14.75;;;10.77;;
75716;SDS011;64333;50.138;14.332;2023-04-22T08:21:23;12.63;;;10.43;;
75716;SDS011;64333;50.138;14.332;2023-04-22T08:23:48;17.00;;;11.20;;
75716;SDS011;64333;50.138;14.332;2023-04-22T08:26:13;14.43;;;10.80;;
75716;SDS011;64333;50.138;14.332;2023-04-22T08:28:40;18.75;;;14.88;;
75716;SDS011;64333;50.138;14.332;2023-04-22T08:31:06;13.38;;;12.02;;
75716;SDS011;64333;50.138;14.332;2023-04-22T08:33:33;12.95;;;10.70;;
75716;SDS011;64333;50.138;14.332;2023-04-22T08:35:58;14.07;;;10.80;;
75716;SDS011;64333;50.138;14.332;2023-04-22T08:38:23;13.77;;;11.13;;
75716;SDS011;64333;50.138;14.332;2023-04-22T08:40:48;13.87;;;10.47;;
75716;SDS011;64333;50.138;14.332;2023-04-22T08:43:14;13.15;;;10.00;;
75716;SDS011;64333;50.138;14.332;2023-04-22T08:45:39;15.25;;;11.75;;
75716;SDS011;64333;50.138;14.332;2023-04-22T08:48:06;15.63;;;11.18;;
75716;SDS011;64333;50.138;14.332;2023-04-22T08:50:32;14.52;;;10.00;;
75716;SDS011;64333;50.138;14.332;2023-04-22T08:52:58;11.88;;;9.93;;
75716;SDS011;64333;50.138;14.332;2023-04-22T08:55:23;13.80;;;9.57;;
75716;SDS011;64333;50.138;14.332;2023-04-22T08:57:49;14.05;;;9.70;;
75716;SDS011;64333;50.138;14.332;2023-04-22T09:00:15;14.40;;;9.48;;
75716;SDS011;64333;50.138;14.332;2023-04-22T09:02:43;14.55;;;9.40;;
75716;SDS011;64333;50.138;14.332;2023-04-22T09:05:09;10.65;;;9.10;;
75716;SDS011;64333;50.138;14.332;2023-04-22T09:07:35;12.43;;;9.15;;
75716;SDS011;64333;50.138;14.332;2023-04-22T09:10:02;11.35;;;9.50;;
75716;SDS011;64333;50.138;14.332;2023-04-22T09:12:28;9.88;;;8.77;;
75716;SDS011;64333;50.138;14.332;2023-04-22T09:14:53;10.52;;;7.90;;
75716;SDS011;64333;50.138;14.332;2023-04-22T09:17:29;10.52;;;9.05;;
75716;SDS011;64333;50.138;14.332;2023-04-22T09:20:10;8.80;;;7.90;;
75716;SDS011;64333;50.138;14.332;2023-04-22T09:22:40;10.50;;;8.43;;
75716;SDS011;64333;50.138;14.332;2023-04-22T09:25:15;12.73;;;8.32;;
75716;SDS011;64333;50.138;14.332;2023-04-22T09:27:41;9.13;;;8.23;;
75716;SDS011;64333;50.138;14.332;2023-04-22T09:30:07;10.27;;;7.95;;
75716;SDS011;64333;50.138;14.332;2023-04-22T09:32:32;9.32;;;7.45;;
75716;SDS011;64333;50.138;14.332;2023-04-22T09:34:58;9.07;;;8.17;;
75716;SDS011;64333;50.138;14.332;2023-04-22T09:37:23;10.50;;;8.30;;
75716;SDS011;64333;50.138;14.332;2023-04-22T09:39:49;9.07;;;7.10;;
75716;SDS011;64333;50.138;14.332;2023-04-22T09:42:15;11.00;;;7.55;;
75716;SDS011;64333;50.138;14.332;2023-04-22T09:44:40;10.00;;;6.70;;
75716;SDS011;64333;50.138;14.332;2023-04-22T09:47:06;10.83;;;6.60;;
75716;SDS011;64333;50.138;14.332;2023-04-22T09:49:35;10.07;;;7.07;;
75716;SDS011;64333;50.138;14.332;2023-04-22T09:52:00;9.65;;;7.65;;
75716;SDS011;64333;50.138;14.332;2023-04-22T09:54:25;8.63;;;6.23;;
75716;SDS011;64333;50.138;14.332;2023-04-22T09:56:51;8.53;;;7.40;;
75716;SDS011;64333;50.138;14.332;2023-04-22T09:59:20;9.65;;;7.75;;
75716;SDS011;64333;50.138;14.332;2023-04-22T10:01:46;8.60;;;6.50;;
75716;SDS011;64333;50.138;14.332;2023-04-22T10:04:11;8.35;;;6.35;;
75716;SDS011;64333;50.138;14.332;2023-04-22T10:06:39;8.98;;;6.63;;
75716;SDS011;64333;50.138;14.332;2023-04-22T10:09:04;11.23;;;7.25;;
75716;SDS011;64333;50.138;14.332;2023-04-22T10:11:30;9.35;;;7.72;;
75716;SDS011;64333;50.138;14.332;2023-04-22T10:13:56;11.98;;;7.55;;
75716;SDS011;64333;50.138;14.332;2023-04-22T10:16:22;10.43;;;7.03;;
75716;SDS011;64333;50.138;14.332;2023-04-22T10:18:48;7.88;;;6.63;;
75716;SDS011;64333;50.138;14.332;2023-04-22T10:21:13;7.90;;;6.40;;
75716;SDS011;64333;50.138;14.332;2023-04-22T10:23:44;9.18;;;6.20;;
75716;SDS011;64333;50.138;14.332;2023-04-22T10:26:09;7.03;;;5.85;;
75716;SDS011;64333;50.138;14.332;2023-04-22T10:28:34;7.93;;;6.10;;
75716;SDS011;64333;50.138;14.332;2023-04-22T10:31:05;8.65;;;7.07;;
75716;SDS011;64333;50.138;14.332;2023-04-22T10:41:04;8.63;;;7.68;;
75716;SDS011;64333;50.138;14.332;2023-04-22T10:43:39;8.05;;;6.88;;
75716;SDS011;64333;50.138;14.332;2023-04-22T10:46:05;7.15;;;6.43;;
75716;SDS011;64333;50.138;14.332;2023-04-22T10:48:48;7.47;;;6.23;;
75716;SDS011;64333;50.138;14.332;2023-04-22T10:53:57;6.70;;;4.95;;
75716;SDS011;64333;50.138;14.332;2023-04-22T10:56:25;5.13;;;4.63;;
75716;SDS011;64333;50.138;14.332;2023-04-22T10:58:51;5.70;;;4.33;;
75716;SDS011;64333;50.138;14.332;2023-04-22T11:01:16;5.93;;;4.38;;
75716;SDS011;64333;50.138;14.332;2023-04-22T11:03:41;7.37;;;4.27;;
75716;SDS011;64333;50.138;14.332;2023-04-22T11:08:42;4.47;;;4.03;;
75716;SDS011;64333;50.138;14.332;2023-04-22T11:11:07;4.07;;;3.63;;
75716;SDS011;64333;50.138;14.332;2023-04-22T11:13:33;5.47;;;3.88;;
75716;SDS011;64333;50.138;14.332;2023-04-22T11:15:59;4.72;;;4.20;;
75716;SDS011;64333;50.138;14.332;2023-04-22T11:18:25;5.57;;;3.50;;
75716;SDS011;64333;50.138;14.332;2023-04-22T11:20:51;5.68;;;3.92;;
75716;SDS011;64333;50.138;14.332;2023-04-22T11:23:24;4.68;;;4.15;;
75716;SDS011;64333;50.138;14.332;2023-04-22T11:25:54;5.60;;;4.18;;
75716;SDS011;64333;50.138;14.332;2023-04-22T11:28:19;8.25;;;4.13;;
75716;SDS011;64333;50.138;14.332;2023-04-22T11:30:46;5.35;;;4.10;;
75716;SDS011;64333;50.138;14.332;2023-04-22T11:33:13;6.00;;;4.47;;
75716;SDS011;64333;50.138;14.332;2023-04-22T11:35:38;8.73;;;5.13;;
75716;SDS011;64333;50.138;14.332;2023-04-22T11:38:04;6.70;;;4.50;;
75716;SDS011;64333;50.138;14.332;2023-04-22T11:40:36;5.60;;;4.10;;
75716;SDS011;64333;50.138;14.332;2023-04-22T11:43:02;4.28;;;3.88;;
75716;SDS011;64333;50.138;14.332;2023-04-22T11:45:28;5.10;;;4.05;;
75716;SDS011;64333;50.138;14.332;2023-04-22T11:47:54;5.32;;;4.35;;
75716;SDS011;64333;50.138;14.332;2023-04-22T11:50:21;5.20;;;4.15;;
75716;SDS011;64333;50.138;14.332;2023-04-22T11:52:51;4.90;;;4.40;;
75716;SDS011;64333;50.138;14.332;2023-04-22T11:55:21;4.80;;;4.30;;
75716;SDS011;64333;50.138;14.332;2023-04-22T11:57:53;5.68;;;3.95;;
75716;SDS011;64333;50.138;14.332;2023-04-22T12:00:19;5.88;;;3.65;;
75716;SDS011;64333;50.138;14.332;2023-04-22T12:02:55;4.35;;;3.70;;
75716;SDS011;64333;50.138;14.332;2023-04-22T12:05:21;5.15;;;4.05;;
75716;SDS011;64333;50.138;14.332;2023-04-22T12:07:56;4.85;;;3.78;;
75716;SDS011;64333;50.138;14.332;2023-04-22T12:10:21;9.37;;;3.63;;
75716;SDS011;64333;50.138;14.332;2023-04-22T12:12:47;6.35;;;3.92;;
75716;SDS011;64333;50.138;14.332;2023-04-22T12:15:12;4.28;;;3.90;;
75716;SDS011;64333;50.138;14.332;2023-04-22T12:17:38;6.22;;;3.88;;
75716;SDS011;64333;50.138;14.332;2023-04-22T12:20:05;5.63;;;3.85;;
75716;SDS011;64333;50.138;14.332;2023-04-22T12:22:31;5.43;;;4.22;;
75716;SDS011;64333;50.138;14.332;2023-04-22T12:24:58;4.25;;;3.85;;
75716;SDS011;64333;50.138;14.332;2023-04-22T12:27:23;4.30;;;3.92;;
75716;SDS011;64333;50.138;14.332;2023-04-22T12:29:52;5.53;;;4.07;;
75716;SDS011;64333;50.138;14.332;2023-04-22T12:32:18;7.32;;;4.20;;
75716;SDS011;64333;50.138;14.332;2023-04-22T12:34:44;7.25;;;4.47;;
75716;SDS011;64333;50.138;14.332;2023-04-22T12:37:09;5.47;;;4.20;;
75716;SDS011;64333;50.138;14.332;2023-04-22T12:39:35;7.15;;;3.97;;
75716;SDS011;64333;50.138;14.332;2023-04-22T12:42:01;6.53;;;4.00;;
75716;SDS011;64333;50.138;14.332;2023-04-22T12:44:27;5.05;;;3.92;;
75716;SDS011;64333;50.138;14.332;2023-04-22T12:46:52;5.63;;;4.03;;
75716;SDS011;64333;50.138;14.332;2023-04-22T12:49:18;4.23;;;3.80;;
75716;SDS011;64333;50.138;14.332;2023-04-22T12:51:43;4.97;;;4.20;;
75716;SDS011;64333;50.138;14.332;2023-04-22T12:54:08;7.33;;;4.47;;
75716;SDS011;64333;50.138;14.332;2023-04-22T12:56:34;5.57;;;4.10;;
75716;SDS011;64333;50.138;14.332;2023-04-22T12:59:00;7.18;;;4.03;;
75716;SDS011;64333;50.138;14.332;2023-04-22T13:01:27;7.57;;;5.32;;
75716;SDS011;64333;50.138;14.332;2023-04-22T13:03:52;4.53;;;3.72;;
75716;SDS011;64333;50.138;14.332;2023-04-22T13:06:17;6.57;;;4.40;;
75716;SDS011;64333;50.138;14.332;2023-04-22T13:08:43;6.07;;;4.40;;
75716;SDS011;64333;50.138;14.332;2023-04-22T13:11:08;4.20;;;3.80;;
75716;SDS011;64333;50.138;14.332;2023-04-22T13:13:33;4.75;;;3.80;;
75716;SDS011;64333;50.138;14.332;2023-04-22T13:15:58;7.50;;;3.83;;
75716;SDS011;64333;50.138;14.332;2023-04-22T13:18:24;5.07;;;3.63;;
75716;SDS011;64333;50.138;14.332;2023-04-22T13:20:49;6.07;;;3.33;;
75716;SDS011;64333;50.138;14.332;2023-04-22T13:23:15;5.88;;;3.47;;
75716;SDS011;64333;50.138;14.332;2023-04-22T13:25:41;4.55;;;3.63;;
75716;SDS011;64333;50.138;14.332;2023-04-22T13:28:06;5.85;;;3.55;;
75716;SDS011;64333;50.138;14.332;2023-04-22T13:30:31;4.50;;;3.50;;
75716;SDS011;64333;50.138;14.332;2023-04-22T13:32:57;3.70;;;3.35;;
75716;SDS011;64333;50.138;14.332;2023-04-22T13:35:22;3.83;;;3.43;;
75716;SDS011;64333;50.138;14.332;2023-04-22T13:37:48;5.40;;;3.47;;
75716;SDS011;64333;50.138;14.332;2023-04-22T13:40:13;5.77;;;3.60;;
75716;SDS011;64333;50.138;14.332;2023-04-22T13:42:39;7.00;;;4.03;;
75716;SDS011;64333;50.138;14.332;2023-04-22T13:45:04;4.27;;;3.87;;
75716;SDS011;64333;50.138;14.332;2023-04-22T13:47:30;4.82;;;4.30;;
75716;SDS011;64333;50.138;14.332;2023-04-22T13:49:55;4.90;;;3.47;;
75716;SDS011;64333;50.138;14.332;2023-04-22T13:52:21;6.45;;;3.47;;
75716;SDS011;64333;50.138;14.332;2023-04-22T13:54:46;5.17;;;3.77;;
75716;SDS011;64333;50.138;14.332;2023-04-22T13:57:12;4.00;;;3.50;;
75716;SDS011;64333;50.138;14.332;2023-04-22T13:59:37;4.67;;;3.20;;
75716;SDS011;64333;50.138;14.332;2023-04-22T14:02:02;4.38;;;3.42;;
75716;SDS011;64333;50.138;14.332;2023-04-22T14:04:28;5.20;;;3.30;;
75716;SDS011;64333;50.138;14.332;2023-04-22T14:06:53;3.93;;;3.37;;
75716;SDS011;64333;50.138;14.332;2023-04-22T14:09:18;3.80;;;3.30;;
75716;SDS011;64333;50.138;14.332;2023-04-22T14:11:43;5.70;;;3.28;;
75716;SDS011;64333;50.138;14.332;2023-04-22T14:14:09;5.97;;;3.27;;
75716;SDS011;64333;50.138;14.332;2023-04-22T14:16:34;3.83;;;3.40;;
75716;SDS011;64333;50.138;14.332;2023-04-22T14:18:59;6.80;;;3.45;;
75716;SDS011;64333;50.138;14.332;2023-04-22T14:21:26;4.30;;;3.45;;
75716;SDS011;64333;50.138;14.332;2023-04-22T14:23:52;4.32;;;2.72;;